Providence, Kentucky
Current Conditions -  °F | °C
As of 3:35 PM on Wednesday 26 Nov 2014 (Local Time) from K5M9 Reporting Station
Light Rain Light Rain  
Wind Chill: 34°   Ceiling: 2100
Heat Index: 38°   Visibility: 10mi
Dew Point: 33°   Wind: 6mph
Humidity: 80%   Direction: 150°SSE
Pressure: 29.99"   Gusts: NA
Location:  37.4°N, 87.76°W
Report Text: K5M9 262135Z AUTO 15005KT 10SM -RA OVC021 04/00 A2999 RMK AO2 T00350003
Loading
Personal Weather Stations






























Interactive Weather Map New forecast layout! Learn more

10-Day Weather Forecast

Advertisements
Track Severe Weather on mobile